createdAt,value
2022-10-28T00:01:44.557Z,24.4
2022-10-28T00:03:46.314Z,25.4
2022-10-28T00:05:44.816Z,24.2
2022-10-28T00:07:44.474Z,24.2
2022-10-28T00:09:44.395Z,25.8
2022-10-28T00:11:44.417Z,24.2
2022-10-28T00:13:44.950Z,23.3
2022-10-28T00:14:22.087Z,23.3
2022-10-28T00:14:24.383Z,23.3
2022-10-28T00:16:59.915Z,26
2022-10-28T00:17:44.288Z,25
2022-10-28T00:19:44.266Z,25
2022-10-28T00:21:45.237Z,24.8
2022-10-28T00:23:44.652Z,23.9
2022-10-28T00:25:44.243Z,24.4
2022-10-28T00:27:44.246Z,25
2022-10-28T00:29:44.222Z,26.8
2022-10-28T00:31:45.309Z,26.6
2022-10-28T00:33:44.589Z,30.3
2022-10-28T00:35:44.164Z,31
2022-10-28T00:37:44.119Z,25.4
2022-10-28T00:39:44.091Z,25
2022-10-28T00:41:46.200Z,31.1
2022-10-28T00:43:46.786Z,29.3
2022-10-28T00:45:44.143Z,29.3
2022-10-28T00:47:50.277Z,27.2
2022-10-28T00:49:47.770Z,28.1
2022-10-28T00:51:46.694Z,26.8
2022-10-28T00:53:45.527Z,30
2022-10-28T00:55:46.609Z,29.7
2022-10-28T00:57:45.449Z,28.4
2022-10-28T00:59:47.947Z,33.5
2022-10-28T01:01:44.355Z,30.7
2022-10-28T01:03:43.918Z,34.5
2022-10-28T01:05:47.122Z,32.4
2022-10-28T01:07:44.500Z,29.8
2022-10-28T01:09:44.418Z,31.3
2022-10-28T01:11:54.468Z,31.6
2022-10-28T01:13:57.050Z,32.5
2022-10-28T01:15:50.744Z,33.4
2022-10-28T01:17:53.536Z,33
2022-10-28T01:20:13.931Z,34.5
2022-10-28T01:22:01.515Z,32.4
2022-10-28T01:23:57.142Z,34.1
2022-10-28T01:26:01.746Z,37.3
2022-10-28T01:28:05.555Z,37.4
2022-10-28T01:30:00.866Z,36.5
2022-10-28T01:31:49.203Z,43.9
2022-10-28T01:33:51.758Z,38.2
2022-10-28T01:35:49.477Z,43.9
2022-10-28T01:37:48.674Z,41.1
2022-10-28T01:39:48.782Z,41
2022-10-28T01:41:51.951Z,40.7
2022-10-28T01:43:51.978Z,38.6
2022-10-28T01:46:27.176Z,42.9
2022-10-28T01:47:49.571Z,41.6
2022-10-28T01:49:48.551Z,46.1
2022-10-28T01:51:47.660Z,44.8
2022-10-28T01:53:46.845Z,39.9
2022-10-28T01:55:48.087Z,42.9
2022-10-28T01:57:47.048Z,43.6
2022-10-28T01:59:46.678Z,44.8
2022-10-28T02:01:43.724Z,49.6
2022-10-28T02:03:45.197Z,50.1
2022-10-28T02:05:45.457Z,50.1
2022-10-28T02:07:44.214Z,54.1
2022-10-28T02:09:59.012Z,54.7
2022-10-28T02:11:59.013Z,53.6
2022-10-28T02:13:51.382Z,52
2022-10-28T02:15:52.484Z,57.8
2022-10-28T02:17:37.719Z,57.8
2022-10-28T02:17:52.738Z,52.5
2022-10-28T02:19:52.486Z,51.4
2022-10-28T02:21:56.463Z,50
2022-10-28T02:23:47.804Z,52.5
2022-10-28T02:25:48.376Z,55.5
2022-10-28T02:27:48.482Z,49.1
2022-10-28T02:29:50.220Z,54.8
2022-10-28T02:31:49.314Z,57.7
2022-10-28T02:33:48.126Z,58.9
2022-10-28T02:35:48.503Z,53.4
2022-10-28T02:37:47.937Z,52.8
2022-10-28T02:39:48.605Z,53
2022-10-28T02:41:49.874Z,51.5
2022-10-28T02:43:36.303Z,51.5
2022-10-28T02:43:42.594Z,50.6
2022-10-28T02:43:48.703Z,50.6
2022-10-28T02:45:14.793Z,50.6
2022-10-28T02:45:21.597Z,50.6
2022-10-28T02:48:39.516Z,50.8
2022-10-28T02:49:47.246Z,56.1
2022-10-28T02:51:46.008Z,51.2
2022-10-28T02:53:55.572Z,53.9
2022-10-28T02:55:46.517Z,57.4
2022-10-28T02:57:45.284Z,51.2
2022-10-28T02:59:50.525Z,53.1
2022-10-28T03:01:43.186Z,53.9
2022-10-28T03:03:43.484Z,56.4
2022-10-28T03:05:43.868Z,55.5
2022-10-28T03:07:43.150Z,53.2
2022-10-28T03:09:43.086Z,56.7
2022-10-28T03:11:43.120Z,58.1
2022-10-28T03:13:43.041Z,59.3
2022-10-28T03:16:38.447Z,63.1
2022-10-28T03:17:43.054Z,62.1
2022-10-28T03:19:43.082Z,61.3
2022-10-28T03:21:43.228Z,58.2
2022-10-28T03:23:43.063Z,68.2
2022-10-28T03:26:08.340Z,65.9
2022-10-28T03:26:32.863Z,65.9
2022-10-28T03:26:35.081Z,65.9
2022-10-28T03:28:35.445Z,64.1
2022-10-28T03:30:08.527Z,68.1
2022-10-28T03:31:43.127Z,74.2
2022-10-28T03:33:43.095Z,65.3
2022-10-28T03:35:43.877Z,73.5
2022-10-28T03:37:43.792Z,74.7
2022-10-28T03:39:43.209Z,74.9
2022-10-28T03:41:43.027Z,74.4
2022-10-28T03:42:41.367Z,74.4
2022-10-28T03:47:53.415Z,79.6
2022-10-28T03:50:35.771Z,73.5
2022-10-28T03:52:21.926Z,76.1
2022-10-28T03:53:42.978Z,78.3
2022-10-28T03:56:22.340Z,78.5
2022-10-28T03:57:20.294Z,78.5
2022-10-28T03:57:22.647Z,78.5
2022-10-28T03:57:42.899Z,88.7
2022-10-28T03:59:43.073Z,93.3
2022-10-28T04:02:53.222Z,83.3
2022-10-28T04:05:07.458Z,76.9
2022-10-28T04:05:47.280Z,78.4
2022-10-28T04:06:03.937Z,78.4
2022-10-28T04:06:06.324Z,78.4
2022-10-28T04:07:42.927Z,70.8
2022-10-28T04:09:42.948Z,72.1
2022-10-28T04:13:42.835Z,72.2
2022-10-28T04:18:07.598Z,71.7
2022-10-28T04:19:42.935Z,72.2
2022-10-28T04:21:42.887Z,68
2022-10-28T04:23:42.967Z,69.7
2022-10-28T04:25:52.450Z,75.2
2022-10-28T04:26:45.720Z,75.2
2022-10-28T04:28:23.188Z,75.2
2022-10-28T04:29:42.867Z,68.1
2022-10-28T04:31:42.928Z,75.4
2022-10-28T04:33:42.841Z,73.2
2022-10-28T04:35:25.221Z,73.2
2022-10-28T04:35:57.690Z,67.8
2022-10-28T04:35:59.912Z,67.8
2022-10-28T04:36:31.217Z,67.8
2022-10-28T04:37:42.775Z,74.4
2022-10-28T04:39:42.802Z,72.1
2022-10-28T04:41:43.242Z,90.2
2022-10-28T04:41:48.874Z,90.2
2022-10-28T04:41:51.139Z,90.2
2022-10-28T04:50:44.783Z,59.5
2022-10-28T04:51:42.983Z,62.5
2022-10-28T04:53:42.849Z,68.6
2022-10-28T04:55:42.817Z,67.8
2022-10-28T04:57:42.791Z,70.4
2022-10-28T04:59:42.799Z,67.2
2022-10-28T05:01:42.967Z,64.2
2022-10-28T05:03:42.893Z,63.6
2022-10-28T05:05:42.803Z,66.5
2022-10-28T05:07:43.367Z,63.4
2022-10-28T05:09:42.815Z,65.9
2022-10-28T05:11:42.882Z,73.4
2022-10-28T05:13:43.022Z,64
2022-10-28T05:17:59.359Z,65.1
2022-10-28T05:19:02.095Z,65.1
2022-10-28T05:19:04.376Z,65.1
2022-10-28T05:19:42.833Z,65.5
2022-10-28T05:21:42.836Z,67.8
2022-10-28T05:23:42.884Z,61.5
2022-10-28T05:25:01.818Z,61.5
2022-10-28T05:26:07.082Z,60
2022-10-28T05:27:42.953Z,62.3
2022-10-28T05:29:42.882Z,66.2
2022-10-28T05:32:24.738Z,73.7
2022-10-28T05:33:42.900Z,59.4
2022-10-28T05:35:43.230Z,56.1
2022-10-28T05:37:43.315Z,63.4
2022-10-28T05:39:42.854Z,54.4
2022-10-28T05:41:42.847Z,56.5
2022-10-28T05:43:31.849Z,56.5
2022-10-28T05:43:34.083Z,56.5
2022-10-28T05:43:42.826Z,51.6
2022-10-28T05:47:06.579Z,50.8
2022-10-28T05:47:43.098Z,49.3
2022-10-28T05:50:01.437Z,47.6
2022-10-28T05:50:34.739Z,47.6
2022-10-28T05:50:37.005Z,47.6
2022-10-28T05:51:42.805Z,48.3
2022-10-28T05:53:42.919Z,45.8
2022-10-28T05:55:46.781Z,45.6
2022-10-28T05:57:43.458Z,45.2
2022-10-28T06:00:12.784Z,43
2022-10-28T06:00:22.101Z,43
2022-10-28T06:00:26.695Z,43
2022-10-28T06:01:43.114Z,45.9
2022-10-28T06:03:43.014Z,43.9
2022-10-28T06:05:38.650Z,43.9
2022-10-28T06:05:44.483Z,43.7
2022-10-28T06:17:31.014Z,44.3
2022-10-28T06:17:44.876Z,38.6
2022-10-28T07:24:13.231Z,47.8
2022-10-28T07:43:25.914Z,44.9
2022-10-28T07:52:20.181Z,39.6
2022-10-28T07:52:49.979Z,37.4
2022-10-28T07:54:16.247Z,37.4
2022-10-28T07:54:50.480Z,50.4
2022-10-28T07:56:50.081Z,39.6
2022-10-28T07:58:50.162Z,37.8
2022-10-28T08:00:24.548Z,37.8
2022-10-28T08:02:45.651Z,36.5
2022-10-28T08:02:50.196Z,38.5
2022-10-28T08:04:50.905Z,35.4
2022-10-28T08:06:50.419Z,33.2
2022-10-28T08:08:54.464Z,35.4
2022-10-28T08:10:50.380Z,35.6
2022-10-28T08:12:50.503Z,41.1
2022-10-28T08:14:50.532Z,38.6
2022-10-28T08:16:50.565Z,40.9
2022-10-28T08:18:50.605Z,30.8
2022-10-28T08:20:50.878Z,30.6
2022-10-28T08:22:50.960Z,28.7
2022-10-28T08:24:50.856Z,25.6
2022-10-28T08:26:51.159Z,27.9
2022-10-28T08:28:51.970Z,26.3
2022-10-28T08:31:04.171Z,24.8
2022-10-28T08:32:51.497Z,24.6
2022-10-28T08:34:51.267Z,24.3
2022-10-28T08:36:51.339Z,23.6
2022-10-28T08:38:51.362Z,23.4
2022-10-28T08:41:03.004Z,22.5
2022-10-28T08:42:59.783Z,24.2
2022-10-28T08:45:15.620Z,25.1
2022-10-28T08:47:03.516Z,28.3
2022-10-28T08:48:51.826Z,26.4
2022-10-28T08:50:58.277Z,24.6
2022-10-28T08:52:56.693Z,26.5
2022-10-28T08:54:54.862Z,27.4
2022-10-28T08:56:52.698Z,26.2
2022-10-28T08:58:53.892Z,26.6
2022-10-28T09:00:18.570Z,26.6
2022-10-28T09:00:24.643Z,26.6
2022-10-28T09:00:54.323Z,27.4
2022-10-28T09:03:02.374Z,26.4
2022-10-28T09:04:59.340Z,27.6
2022-10-28T09:06:52.497Z,27.4
2022-10-28T09:08:53.486Z,25.6
2022-10-28T09:11:03.385Z,29.4
2022-10-28T09:13:01.373Z,28.8
2022-10-28T09:15:08.019Z,28.8
2022-10-28T09:17:02.137Z,29.8
2022-10-28T09:18:54.352Z,35.8
2022-10-28T09:20:55.239Z,34.1
2022-10-28T09:22:57.219Z,28.6
2022-10-28T09:24:55.536Z,33.8
2022-10-28T09:27:03.501Z,27.9
2022-10-28T09:31:03.010Z,28.3
2022-10-28T09:33:04.103Z,27.6
2022-10-28T09:34:59.591Z,30.5
2022-10-28T09:36:59.464Z,28.6
2022-10-28T09:38:56.795Z,27
2022-10-28T09:40:59.424Z,24.3
2022-10-28T09:43:03.670Z,26.6
2022-10-28T09:44:57.729Z,28.4
2022-10-28T09:46:58.581Z,26.2
2022-10-28T09:48:58.362Z,23.6
2022-10-28T09:50:57.836Z,23
2022-10-28T09:53:03.337Z,24.6
2022-10-28T09:54:57.569Z,27.1
2022-10-28T09:56:55.080Z,24.3
2022-10-28T09:58:58.234Z,34.8
2022-10-28T10:00:55.042Z,30.9
2022-10-28T10:02:57.553Z,27.1
2022-10-28T10:04:56.199Z,24.4
2022-10-28T10:06:58.220Z,25.5
2022-10-28T10:08:56.066Z,23.9
2022-10-28T10:11:01.606Z,33.9
2022-10-28T10:13:00.860Z,25.2
2022-10-28T10:14:57.862Z,25.2
2022-10-28T10:17:00.269Z,25.1
2022-10-28T10:19:00.260Z,28.9
2022-10-28T10:20:57.326Z,28.8
2022-10-28T10:22:56.440Z,23.5
2022-10-28T10:24:56.200Z,24.1
2022-10-28T10:26:59.160Z,24.1
2022-10-28T10:28:59.402Z,22.4
2022-10-28T10:30:59.184Z,25.9
2022-10-28T10:32:57.913Z,24.4
2022-10-28T10:35:03.619Z,24.1
2022-10-28T10:36:57.069Z,23.8
2022-10-28T10:38:58.949Z,22.6
2022-10-28T10:40:57.462Z,25.5
2022-10-28T10:43:18.926Z,24.4
2022-10-28T10:45:01.241Z,25.6
2022-10-28T10:47:15.876Z,24.2
2022-10-28T10:49:11.545Z,23.6
2022-10-28T10:51:03.734Z,27.4
2022-10-28T10:52:59.750Z,21.9
2022-10-28T10:55:02.023Z,20.7
2022-10-28T10:57:06.808Z,19.8
2022-10-28T10:59:01.681Z,20.7
2022-10-28T11:01:01.689Z,22.4
2022-10-28T11:02:59.492Z,19.8
2022-10-28T11:05:01.729Z,20.6
2022-10-28T11:06:58.493Z,21.9
2022-10-28T11:09:00.847Z,24.6
2022-10-28T11:11:10.674Z,18.8
2022-10-28T11:13:03.523Z,19.2
2022-10-28T11:15:00.160Z,17.8
2022-10-28T11:17:00.796Z,16.7
2022-10-28T11:19:18.608Z,19.6
2022-10-28T11:21:06.659Z,22
2022-10-28T11:23:12.733Z,24.1
2022-10-28T11:25:18.634Z,19.6
2022-10-28T11:27:08.417Z,20.6
2022-10-28T11:29:08.591Z,17.8
2022-10-28T11:31:13.792Z,17.9
2022-10-28T11:33:24.717Z,18.1
2022-10-28T11:35:22.537Z,21.4
2022-10-28T11:37:10.873Z,24.5
2022-10-28T11:39:15.897Z,21
2022-10-28T11:41:13.534Z,21.5
2022-10-28T11:43:17.576Z,21
2022-10-28T11:45:05.237Z,22.3
2022-10-28T11:47:10.527Z,25.7
2022-10-28T11:49:33.659Z,24.1
2022-10-28T11:51:11.841Z,24.7
2022-10-28T11:53:19.435Z,27.5
2022-10-28T11:55:15.376Z,27.5
2022-10-28T11:57:06.723Z,31.9
2022-10-28T11:59:14.722Z,35.3
2022-10-28T12:01:15.628Z,37.5
2022-10-28T12:03:15.442Z,32.5
2022-10-28T12:05:09.918Z,29.5
2022-10-28T12:07:20.079Z,32.8
2022-10-28T12:09:13.650Z,28.8
2022-10-28T12:11:17.609Z,29.1
2022-10-28T12:13:12.460Z,29.8
2022-10-28T12:15:13.935Z,28.2
2022-10-28T12:17:09.156Z,28.4
2022-10-28T12:19:08.357Z,29.2
2022-10-28T12:21:14.279Z,29.5
2022-10-28T12:23:09.657Z,29.9
2022-10-28T12:25:09.167Z,30.1
2022-10-28T12:27:12.472Z,32.6
2022-10-28T12:29:06.086Z,34.7
2022-10-28T12:31:05.083Z,37.5
2022-10-28T12:33:06.895Z,40.3
2022-10-28T12:35:11.892Z,37.6
2022-10-28T12:37:05.918Z,40.3
2022-10-28T12:39:09.516Z,40.7
2022-10-28T12:41:07.313Z,37.5
2022-10-28T12:43:09.760Z,37
2022-10-28T12:45:10.576Z,42.2
2022-10-28T12:47:13.642Z,42.5
2022-10-28T12:49:09.552Z,48.2
2022-10-28T12:51:10.188Z,46.2
2022-10-28T12:53:19.953Z,47.2
2022-10-28T12:55:17.027Z,43.4
2022-10-28T12:57:10.770Z,44
2022-10-28T12:59:11.150Z,44.5
2022-10-28T13:01:09.215Z,46.9
2022-10-28T13:03:05.544Z,47.2
2022-10-28T13:05:04.505Z,41.3
2022-10-28T13:07:17.386Z,44.1
2022-10-28T13:09:18.407Z,47.6
2022-10-28T13:11:34.512Z,44.2
2022-10-28T13:13:24.368Z,51.1
2022-10-28T13:15:24.708Z,46.2
2022-10-28T13:17:18.972Z,42.4
2022-10-28T13:19:32.983Z,49
2022-10-28T13:21:14.751Z,46.5
2022-10-28T13:23:13.300Z,50.8
2022-10-28T13:25:18.383Z,46.8
2022-10-28T13:27:05.505Z,41
2022-10-28T13:29:06.979Z,44.5
2022-10-28T13:31:07.487Z,44.9
2022-10-28T13:33:06.728Z,45
2022-10-28T13:35:13.294Z,44.2
2022-10-28T13:37:15.776Z,45.6
2022-10-28T13:39:06.971Z,43.4
2022-10-28T13:41:26.561Z,45.5
2022-10-28T13:43:04.498Z,45.6
2022-10-28T13:45:20.853Z,43
2022-10-28T13:47:30.044Z,41.6
2022-10-28T13:49:23.476Z,41.6
2022-10-28T13:51:34.305Z,46.3
2022-10-28T13:53:41.451Z,43.5
2022-10-28T13:55:23.007Z,41.4
2022-10-28T13:57:12.844Z,43.4
2022-10-28T13:59:18.799Z,42.9
2022-10-28T14:01:34.819Z,43.3
2022-10-28T14:03:15.748Z,45.8
2022-10-28T14:05:07.415Z,44.8
2022-10-28T14:07:18.188Z,40.3
2022-10-28T14:09:12.805Z,45.3
2022-10-28T14:11:08.191Z,43.2
2022-10-28T14:13:17.032Z,42.6
2022-10-28T14:15:18.713Z,45.3
2022-10-28T14:17:18.789Z,45.3
2022-10-28T14:19:16.347Z,50.2
2022-10-28T14:21:05.917Z,50.3
2022-10-28T14:23:35.304Z,51.8
2022-10-28T14:25:42.335Z,51.1
2022-10-28T14:27:26.324Z,50.6
2022-10-28T14:29:22.937Z,55.1
2022-10-28T14:31:35.622Z,52
2022-10-28T14:33:21.258Z,52.7
2022-10-28T14:35:18.916Z,51.6
2022-10-28T14:37:28.528Z,55.2
2022-10-28T14:39:23.385Z,56
2022-10-28T14:41:24.668Z,57.7
2022-10-28T14:43:18.380Z,58.1
2022-10-28T14:45:19.919Z,55.7
2022-10-28T14:47:24.159Z,56.2
2022-10-28T14:49:17.838Z,56.3
2022-10-28T14:51:12.060Z,58.1
2022-10-28T14:53:12.408Z,60.9
2022-10-28T14:55:19.429Z,75.8
2022-10-28T14:57:07.815Z,58.4
2022-10-28T14:59:24.484Z,61.4
2022-10-28T15:01:20.613Z,60.6
2022-10-28T15:03:10.245Z,61.7
2022-10-28T15:05:15.791Z,56.1
2022-10-28T15:07:12.725Z,62.1
2022-10-28T15:09:21.087Z,60.7
2022-10-28T15:11:08.595Z,61.3
2022-10-28T15:13:15.440Z,63.4
2022-10-28T15:15:17.154Z,60.7
2022-10-28T15:17:13.585Z,57.2
2022-10-28T15:19:09.329Z,61.4
2022-10-28T15:21:10.024Z,54.7
2022-10-28T15:23:15.864Z,64.4
2022-10-28T15:25:12.779Z,55.3
2022-10-28T15:27:12.854Z,58
2022-10-28T15:29:11.090Z,59.9
2022-10-28T15:31:09.259Z,57
2022-10-28T15:33:29.033Z,55.7
2022-10-28T15:35:39.360Z,57.2
2022-10-28T15:37:09.556Z,55.5
2022-10-28T15:39:15.415Z,56.4
2022-10-28T15:41:41.444Z,57.8
2022-10-28T15:43:17.923Z,52.9
2022-10-28T15:45:19.057Z,53.7
2022-10-28T15:47:21.367Z,56.1
2022-10-28T15:49:39.041Z,54.7
2022-10-28T15:51:11.767Z,49.7
2022-10-28T15:53:36.334Z,50.8
2022-10-28T15:55:35.986Z,51.8
2022-10-28T15:57:21.240Z,51.6
2022-10-28T15:59:19.405Z,50.1
2022-10-28T16:01:27.629Z,51.2
2022-10-28T16:03:24.539Z,47.5
2022-10-28T16:05:39.582Z,48.1
2022-10-28T16:07:10.425Z,43.8
2022-10-28T16:09:17.546Z,45.6
2022-10-28T16:11:17.036Z,47
2022-10-28T16:13:17.281Z,47.8
2022-10-28T16:48:11.358Z,42.7
2022-10-28T16:49:11.857Z,34.8
2022-10-28T16:49:57.519Z,34.8
2022-10-28T16:51:14.605Z,40.3
2022-10-28T16:52:24.999Z,40.3
2022-10-28T16:53:12.663Z,44.1
2022-10-28T16:55:14.918Z,47.2
2022-10-28T16:57:12.678Z,54.8
2022-10-28T16:59:12.821Z,52.4
2022-10-28T17:01:25.919Z,50
2022-10-28T17:01:50.841Z,50
2022-10-28T17:01:53.397Z,50
2022-10-28T17:03:13.657Z,48.9
2022-10-28T17:05:17.878Z,54.3
2022-10-28T17:07:12.823Z,51.3
2022-10-28T17:09:13.216Z,47.8
2022-10-28T17:11:14.449Z,49
2022-10-28T17:13:14.570Z,46.8
2022-10-28T17:15:13.370Z,45.1
2022-10-28T17:17:13.802Z,45.3
2022-10-28T17:19:14.026Z,46.8
2022-10-28T17:21:13.456Z,46.4
2022-10-28T17:23:13.501Z,47.9
2022-10-28T17:25:13.713Z,51.9
2022-10-28T17:27:13.875Z,43.2
2022-10-28T17:29:13.895Z,44.5
2022-10-28T17:31:13.904Z,42.6
2022-10-28T17:33:13.975Z,48.1
2022-10-28T17:35:14.162Z,41.3
2022-10-28T17:37:14.203Z,43.5
2022-10-28T17:39:18.658Z,42.3
2022-10-28T17:41:14.335Z,47.6
2022-10-28T17:43:14.437Z,47
2022-10-28T17:45:17.971Z,42.8
2022-10-28T17:47:14.645Z,46.5
2022-10-28T17:49:14.734Z,49.4
2022-10-28T17:51:15.244Z,49.3
2022-10-28T17:53:14.893Z,46.2
2022-10-28T17:55:15.087Z,60.6
2022-10-28T17:57:15.090Z,55.8
2022-10-28T17:59:15.283Z,53.1
2022-10-28T18:01:15.465Z,54.9
2022-10-28T18:03:15.303Z,54.1
2022-10-28T18:05:15.582Z,48.5
2022-10-28T18:07:15.584Z,53.9
2022-10-28T18:09:15.833Z,48.3
2022-10-28T18:11:17.568Z,48.6
2022-10-28T18:13:15.847Z,40.4
2022-10-28T18:15:16.024Z,43.5
2022-10-28T18:17:15.996Z,43.6
2022-10-28T18:19:16.257Z,45.9
2022-10-28T18:21:16.836Z,43.8
2022-10-28T18:23:16.260Z,42.7
2022-10-28T18:25:16.320Z,41.7
2022-10-28T18:27:16.373Z,44.6
2022-10-28T18:30:53.173Z,41
2022-10-28T18:31:17.908Z,44.3
2022-10-28T18:33:16.832Z,41.1
2022-10-28T18:36:05.784Z,42.3
2022-10-28T18:37:16.724Z,40
2022-10-28T18:39:16.882Z,39.9
2022-10-28T18:41:18.834Z,43.8
2022-10-28T18:47:53.276Z,38.7
2022-10-28T18:49:17.382Z,41.4
2022-10-28T18:51:17.668Z,37.6
2022-10-28T18:53:17.611Z,39.7
2022-10-28T18:55:17.571Z,37.2
2022-10-28T18:57:17.699Z,41.5
2022-10-28T18:59:18.010Z,38.8
2022-10-28T19:01:20.159Z,42.1
2022-10-28T19:03:20.444Z,42.4
2022-10-28T19:06:25.412Z,46
2022-10-28T19:07:31.951Z,43.7
2022-10-28T19:07:34.515Z,43.7
2022-10-28T19:20:51.168Z,38.3
2022-10-28T19:21:19.223Z,41.4
2022-10-28T19:23:19.083Z,41.9
2022-10-28T19:37:27.562Z,42.4
2022-10-28T19:39:20.075Z,36.1
2022-10-28T19:39:56.436Z,36.1
2022-10-28T19:49:56.592Z,34.5
2022-10-28T19:51:23.019Z,37.7
2022-10-28T19:53:56.784Z,37.2
2022-10-28T19:55:36.421Z,38.4
2022-10-28T19:55:55.366Z,38.4
2022-10-28T19:55:59.063Z,38.4
2022-10-28T19:57:20.912Z,39
2022-10-28T19:59:21.068Z,37.6
2022-10-28T20:01:23.203Z,42.2
2022-10-28T20:03:21.221Z,37.1
2022-10-28T20:05:21.388Z,39.9
2022-10-28T20:07:21.495Z,40.2
2022-10-28T20:09:26.387Z,33.2
2022-10-28T20:17:52.391Z,39.3
2022-10-28T20:19:22.077Z,34.6
2022-10-28T20:21:23.774Z,38.5
2022-10-28T20:23:22.921Z,38.5
2022-10-28T20:25:22.423Z,37.4
2022-10-28T20:27:58.269Z,40.1
2022-10-28T20:29:22.729Z,40
2022-10-28T20:31:24.570Z,34.3
2022-10-28T20:33:22.881Z,36.1
2022-10-28T20:35:23.032Z,32.1
2022-10-28T20:37:23.070Z,32
2022-10-28T20:39:23.220Z,30.3
2022-10-28T20:41:24.444Z,34.3
2022-10-28T20:49:52.071Z,36.9
2022-10-28T20:51:26.026Z,35.7
2022-10-28T20:52:19.457Z,35.7
2022-10-28T20:53:25.657Z,31.5
2022-10-28T20:55:24.093Z,34
2022-10-28T20:57:24.364Z,33.2
2022-10-28T20:59:24.371Z,34.5
2022-10-28T21:01:24.084Z,32.1
2022-10-28T21:01:28.432Z,32.1
2022-10-28T21:01:32.465Z,32.1
2022-10-28T21:03:24.742Z,31.8
2022-10-28T21:05:24.803Z,32.8
2022-10-28T21:07:24.917Z,37.4
2022-10-28T21:09:25.078Z,34.9
2022-10-28T21:11:26.918Z,37.1
2022-10-28T21:17:53.388Z,34.2
2022-10-28T21:19:25.657Z,29.1
2022-10-28T21:21:26.790Z,28.9
2022-10-28T21:23:27.537Z,29.5
2022-10-28T21:25:40.538Z,29.8
2022-10-28T21:25:52.515Z,29.8
2022-10-28T21:25:56.300Z,29.8
2022-10-28T21:30:35.903Z,33.5
2022-10-28T21:31:01.158Z,33.5
2022-10-28T21:31:05.449Z,33.5
2022-10-28T21:31:26.592Z,33.1
2022-10-28T21:33:26.728Z,33.8
2022-10-28T21:35:26.936Z,33.8
2022-10-28T21:37:26.843Z,32.2
2022-10-28T21:39:26.997Z,28.9
2022-10-28T21:41:27.215Z,30.4
2022-10-28T21:43:28.524Z,33
2022-10-28T21:49:52.302Z,33.3
2022-10-28T21:51:08.488Z,33.3
2022-10-28T21:51:15.779Z,33.3
2022-10-28T21:51:27.734Z,32
2022-10-28T21:53:31.592Z,35.4
2022-10-28T21:56:29.478Z,38.6
2022-10-28T21:56:54.207Z,38.6
2022-10-28T21:56:56.463Z,38.6
2022-10-28T21:57:28.605Z,35.3
2022-10-28T21:59:28.383Z,31.9
2022-10-28T22:01:28.464Z,36.2
2022-10-28T22:03:28.294Z,30.5
2022-10-28T22:05:28.461Z,30.8
2022-10-28T22:07:29.293Z,31.7
2022-10-28T22:20:22.117Z,33.2
2022-10-28T22:22:49.225Z,35.4
2022-10-28T22:23:30.117Z,31.7
2022-10-28T23:01:23.925Z,25.2
2022-10-28T23:01:32.399Z,23.6
2022-10-28T23:20:27.364Z,20.3
2022-10-28T23:32:09.197Z,25.6
2022-10-28T23:39:02.786Z,18.8
2022-10-28T23:39:34.294Z,28.8
2022-10-28T23:41:34.434Z,27.7
